sensor_id;sensor_type;location;lat;lon;timestamp;temperature;humidity
2327;DHT22;1174;51.588;7.328;2024-02-04T00:00:44;11.30;99.90
2327;DHT22;1174;51.588;7.328;2024-02-04T00:03:11;11.30;99.90
2327;DHT22;1174;51.588;7.328;2024-02-04T00:05:38;11.20;99.90
2327;DHT22;1174;51.588;7.328;2024-02-04T00:08:06;11.20;99.90
2327;DHT22;1174;51.588;7.328;2024-02-04T00:10:33;11.20;99.90
2327;DHT22;1174;51.588;7.328;2024-02-04T00:13:00;11.20;99.90
2327;DHT22;1174;51.588;7.328;2024-02-04T00:15:26;11.20;99.90
2327;DHT22;1174;51.588;7.328;2024-02-04T00:17:53;11.10;99.90
2327;DHT22;1174;51.588;7.328;2024-02-04T00:20:20;11.20;99.90
2327;DHT22;1174;51.588;7.328;2024-02-04T00:22:47;11.20;99.90
2327;DHT22;1174;51.588;7.328;2024-02-04T00:25:15;11.20;99.90
2327;DHT22;1174;51.588;7.328;2024-02-04T00:27:44;11.10;99.90
2327;DHT22;1174;51.588;7.328;2024-02-04T00:30:11;11.10;99.90
2327;DHT22;1174;51.588;7.328;2024-02-04T00:32:38;11.20;99.90
2327;DHT22;1174;51.588;7.328;2024-02-04T00:35:06;11.20;99.90
2327;DHT22;1174;51.588;7.328;2024-02-04T00:37:32;11.20;99.90
2327;DHT22;1174;51.588;7.328;2024-02-04T00:39:59;11.20;99.90
2327;DHT22;1174;51.588;7.328;2024-02-04T00:42:27;11.30;99.90
2327;DHT22;1174;51.588;7.328;2024-02-04T00:44:54;11.30;99.90
2327;DHT22;1174;51.588;7.328;2024-02-04T00:47:21;11.20;99.90
2327;DHT22;1174;51.588;7.328;2024-02-04T00:49:47;11.10;99.90
2327;DHT22;1174;51.588;7.328;2024-02-04T00:52:14;11.10;99.90
2327;DHT22;1174;51.588;7.328;2024-02-04T00:54:41;11.10;99.90
2327;DHT22;1174;51.588;7.328;2024-02-04T00:57:07;11.10;99.90
2327;DHT22;1174;51.588;7.328;2024-02-04T00:59:35;11.10;99.90
2327;DHT22;1174;51.588;7.328;2024-02-04T01:02:02;11.10;99.90
2327;DHT22;1174;51.588;7.328;2024-02-04T01:04:29;11.00;99.90
2327;DHT22;1174;51.588;7.328;2024-02-04T01:06:56;11.00;99.90
2327;DHT22;1174;51.588;7.328;2024-02-04T01:09:23;11.00;99.90
2327;DHT22;1174;51.588;7.328;2024-02-04T01:11:49;11.00;99.90
2327;DHT22;1174;51.588;7.328;2024-02-04T01:14:18;10.90;99.90
2327;DHT22;1174;51.588;7.328;2024-02-04T01:16:46;10.90;99.90
2327;DHT22;1174;51.588;7.328;2024-02-04T01:19:13;11.00;99.90
2327;DHT22;1174;51.588;7.328;2024-02-04T01:21:40;11.00;99.90
2327;DHT22;1174;51.588;7.328;2024-02-04T01:24:06;10.90;99.90
2327;DHT22;1174;51.588;7.328;2024-02-04T01:26:32;10.90;99.90
2327;DHT22;1174;51.588;7.328;2024-02-04T01:28:59;10.90;99.90
2327;DHT22;1174;51.588;7.328;2024-02-04T01:31:27;10.80;99.90
2327;DHT22;1174;51.588;7.328;2024-02-04T01:33:54;10.80;99.90
2327;DHT22;1174;51.588;7.328;2024-02-04T01:36:20;10.80;99.90
2327;DHT22;1174;51.588;7.328;2024-02-04T01:38:47;10.90;99.90
2327;DHT22;1174;51.588;7.328;2024-02-04T01:41:14;10.80;99.90
2327;DHT22;1174;51.588;7.328;2024-02-04T01:43:41;10.70;99.90
2327;DHT22;1174;51.588;7.328;2024-02-04T01:46:08;10.70;99.90
2327;DHT22;1174;51.588;7.328;2024-02-04T01:48:35;10.80;99.90
2327;DHT22;1174;51.588;7.328;2024-02-04T01:51:04;10.80;99.90
2327;DHT22;1174;51.588;7.328;2024-02-04T01:53:32;10.80;99.90
2327;DHT22;1174;51.588;7.328;2024-02-04T01:56:00;10.70;99.90
2327;DHT22;1174;51.588;7.328;2024-02-04T01:58:27;10.60;99.90
2327;DHT22;1174;51.588;7.328;2024-02-04T02:00:54;10.70;99.90
2327;DHT22;1174;51.588;7.328;2024-02-04T02:03:21;10.70;99.90
2327;DHT22;1174;51.588;7.328;2024-02-04T02:19:41;10.80;99.90
2327;DHT22;1174;51.588;7.328;2024-02-04T02:22:27;10.80;99.90
2327;DHT22;1174;51.588;7.328;2024-02-04T02:24:57;10.80;99.90
2327;DHT22;1174;51.588;7.328;2024-02-04T02:27:24;10.70;99.90
2327;DHT22;1174;51.588;7.328;2024-02-04T02:29:51;10.80;99.90
2327;DHT22;1174;51.588;7.328;2024-02-04T02:32:18;10.80;99.90
2327;DHT22;1174;51.588;7.328;2024-02-04T02:34:45;10.90;99.90
2327;DHT22;1174;51.588;7.328;2024-02-04T02:37:20;10.80;99.90
2327;DHT22;1174;51.588;7.328;2024-02-04T02:39:50;10.90;99.90
2327;DHT22;1174;51.588;7.328;2024-02-04T02:42:25;10.90;99.90
2327;DHT22;1174;51.588;7.328;2024-02-04T02:44:53;10.80;99.90
2327;DHT22;1174;51.588;7.328;2024-02-04T02:47:21;10.90;99.90
2327;DHT22;1174;51.588;7.328;2024-02-04T02:49:51;10.80;99.90
2327;DHT22;1174;51.588;7.328;2024-02-04T02:52:18;10.90;99.90
2327;DHT22;1174;51.588;7.328;2024-02-04T02:54:44;10.90;99.90
2327;DHT22;1174;51.588;7.328;2024-02-04T02:57:11;10.90;99.90
2327;DHT22;1174;51.588;7.328;2024-02-04T02:59:39;10.90;99.90
2327;DHT22;1174;51.588;7.328;2024-02-04T03:02:06;10.90;99.90
2327;DHT22;1174;51.588;7.328;2024-02-04T03:04:32;10.90;99.90
2327;DHT22;1174;51.588;7.328;2024-02-04T03:06:59;10.80;99.90
2327;DHT22;1174;51.588;7.328;2024-02-04T03:09:26;10.80;99.90
2327;DHT22;1174;51.588;7.328;2024-02-04T03:11:53;10.80;99.90
2327;DHT22;1174;51.588;7.328;2024-02-04T03:14:20;10.80;99.90
2327;DHT22;1174;51.588;7.328;2024-02-04T03:16:48;10.80;99.90
2327;DHT22;1174;51.588;7.328;2024-02-04T03:19:15;10.90;99.90
2327;DHT22;1174;51.588;7.328;2024-02-04T03:21:41;10.90;99.90
2327;DHT22;1174;51.588;7.328;2024-02-04T03:24:08;11.00;99.90
2327;DHT22;1174;51.588;7.328;2024-02-04T03:26:35;11.00;99.90
2327;DHT22;1174;51.588;7.328;2024-02-04T03:29:02;11.10;99.90
2327;DHT22;1174;51.588;7.328;2024-02-04T03:31:30;11.00;99.90
2327;DHT22;1174;51.588;7.328;2024-02-04T03:33:59;11.00;99.90
2327;DHT22;1174;51.588;7.328;2024-02-04T03:36:25;11.00;99.90
2327;DHT22;1174;51.588;7.328;2024-02-04T03:38:52;11.10;99.90
2327;DHT22;1174;51.588;7.328;2024-02-04T03:41:19;11.10;99.90
2327;DHT22;1174;51.588;7.328;2024-02-04T03:43:46;11.10;99.90
2327;DHT22;1174;51.588;7.328;2024-02-04T03:46:15;11.10;99.90
2327;DHT22;1174;51.588;7.328;2024-02-04T03:48:42;11.10;99.90
2327;DHT22;1174;51.588;7.328;2024-02-04T03:51:15;11.10;99.90
2327;DHT22;1174;51.588;7.328;2024-02-04T03:53:42;11.10;99.90
2327;DHT22;1174;51.588;7.328;2024-02-04T03:56:09;11.10;99.90
2327;DHT22;1174;51.588;7.328;2024-02-04T03:58:35;11.10;99.90
2327;DHT22;1174;51.588;7.328;2024-02-04T04:01:02;11.10;99.90
2327;DHT22;1174;51.588;7.328;2024-02-04T04:03:29;11.10;99.90
2327;DHT22;1174;51.588;7.328;2024-02-04T04:05:56;11.10;99.90
2327;DHT22;1174;51.588;7.328;2024-02-04T04:08:24;11.10;99.90
2327;DHT22;1174;51.588;7.328;2024-02-04T04:10:51;11.10;99.90
2327;DHT22;1174;51.588;7.328;2024-02-04T04:13:17;11.10;99.90
2327;DHT22;1174;51.588;7.328;2024-02-04T04:15:44;11.10;99.90
2327;DHT22;1174;51.588;7.328;2024-02-04T04:18:11;11.10;99.90
2327;DHT22;1174;51.588;7.328;2024-02-04T04:20:38;11.10;99.90
2327;DHT22;1174;51.588;7.328;2024-02-04T04:23:05;11.10;99.90
2327;DHT22;1174;51.588;7.328;2024-02-04T04:25:33;11.10;99.90
2327;DHT22;1174;51.588;7.328;2024-02-04T04:28:00;11.20;99.90
2327;DHT22;1174;51.588;7.328;2024-02-04T04:30:26;11.20;99.90
2327;DHT22;1174;51.588;7.328;2024-02-04T04:32:53;11.20;99.90
2327;DHT22;1174;51.588;7.328;2024-02-04T04:35:20;11.20;99.90
2327;DHT22;1174;51.588;7.328;2024-02-04T04:37:47;11.20;99.90
2327;DHT22;1174;51.588;7.328;2024-02-04T04:40:13;11.10;99.90
2327;DHT22;1174;51.588;7.328;2024-02-04T04:42:41;11.20;99.90
2327;DHT22;1174;51.588;7.328;2024-02-04T04:45:09;11.30;99.90
2327;DHT22;1174;51.588;7.328;2024-02-04T04:47:36;11.30;99.90
2327;DHT22;1174;51.588;7.328;2024-02-04T04:50:04;11.30;99.90
2327;DHT22;1174;51.588;7.328;2024-02-04T04:52:31;11.30;99.90
2327;DHT22;1174;51.588;7.328;2024-02-04T04:54:58;11.20;99.90
2327;DHT22;1174;51.588;7.328;2024-02-04T04:57:25;11.10;99.90
2327;DHT22;1174;51.588;7.328;2024-02-04T04:59:53;11.10;99.90
2327;DHT22;1174;51.588;7.328;2024-02-04T05:02:19;11.10;99.90
2327;DHT22;1174;51.588;7.328;2024-02-04T05:04:46;11.20;99.90
2327;DHT22;1174;51.588;7.328;2024-02-04T05:07:14;11.10;99.90
2327;DHT22;1174;51.588;7.328;2024-02-04T05:09:42;11.10;99.90
2327;DHT22;1174;51.588;7.328;2024-02-04T05:12:10;11.20;99.90
2327;DHT22;1174;51.588;7.328;2024-02-04T05:14:37;11.20;99.90
2327;DHT22;1174;51.588;7.328;2024-02-04T05:17:04;11.10;99.90
2327;DHT22;1174;51.588;7.328;2024-02-04T05:19:31;11.20;99.90
2327;DHT22;1174;51.588;7.328;2024-02-04T05:21:58;11.10;99.90
2327;DHT22;1174;51.588;7.328;2024-02-04T05:24:25;11.10;99.90
2327;DHT22;1174;51.588;7.328;2024-02-04T05:26:51;11.00;99.90
2327;DHT22;1174;51.588;7.328;2024-02-04T05:29:18;11.10;99.90
2327;DHT22;1174;51.588;7.328;2024-02-04T05:31:45;11.00;99.90
2327;DHT22;1174;51.588;7.328;2024-02-04T05:34:13;10.90;99.90
2327;DHT22;1174;51.588;7.328;2024-02-04T05:36:42;10.90;99.90
2327;DHT22;1174;51.588;7.328;2024-02-04T05:39:09;10.90;99.90
2327;DHT22;1174;51.588;7.328;2024-02-04T05:41:37;10.90;99.90
2327;DHT22;1174;51.588;7.328;2024-02-04T05:44:04;10.90;99.90
2327;DHT22;1174;51.588;7.328;2024-02-04T05:46:31;10.90;99.90
2327;DHT22;1174;51.588;7.328;2024-02-04T05:48:57;10.90;99.90
2327;DHT22;1174;51.588;7.328;2024-02-04T05:51:25;10.90;99.90
2327;DHT22;1174;51.588;7.328;2024-02-04T05:53:52;10.90;99.90
2327;DHT22;1174;51.588;7.328;2024-02-04T05:56:19;10.90;99.90
2327;DHT22;1174;51.588;7.328;2024-02-04T05:58:46;11.00;99.90
2327;DHT22;1174;51.588;7.328;2024-02-04T06:01:14;11.00;99.90
2327;DHT22;1174;51.588;7.328;2024-02-04T06:03:42;11.10;99.90
2327;DHT22;1174;51.588;7.328;2024-02-04T06:06:08;11.00;99.90
2327;DHT22;1174;51.588;7.328;2024-02-04T06:08:36;11.00;99.90
2327;DHT22;1174;51.588;7.328;2024-02-04T06:11:03;11.00;99.90
2327;DHT22;1174;51.588;7.328;2024-02-04T06:13:30;11.00;99.90
2327;DHT22;1174;51.588;7.328;2024-02-04T06:15:57;11.00;99.90
2327;DHT22;1174;51.588;7.328;2024-02-04T06:18:24;10.90;99.90
2327;DHT22;1174;51.588;7.328;2024-02-04T06:20:50;11.00;99.90
2327;DHT22;1174;51.588;7.328;2024-02-04T06:23:17;10.90;99.90
2327;DHT22;1174;51.588;7.328;2024-02-04T06:25:46;10.90;99.90
2327;DHT22;1174;51.588;7.328;2024-02-04T06:28:13;10.90;99.90
2327;DHT22;1174;51.588;7.328;2024-02-04T06:30:40;10.90;99.90
2327;DHT22;1174;51.588;7.328;2024-02-04T06:33:07;11.00;99.90
2327;DHT22;1174;51.588;7.328;2024-02-04T06:35:33;11.00;99.90
2327;DHT22;1174;51.588;7.328;2024-02-04T06:38:00;11.00;99.90
2327;DHT22;1174;51.588;7.328;2024-02-04T06:40:27;11.00;99.90
2327;DHT22;1174;51.588;7.328;2024-02-04T06:42:55;11.00;99.90
2327;DHT22;1174;51.588;7.328;2024-02-04T06:45:21;11.00;99.90
2327;DHT22;1174;51.588;7.328;2024-02-04T06:47:48;11.10;99.90
2327;DHT22;1174;51.588;7.328;2024-02-04T06:50:15;11.10;99.90
2327;DHT22;1174;51.588;7.328;2024-02-04T06:52:42;11.10;99.90
2327;DHT22;1174;51.588;7.328;2024-02-04T06:55:10;11.00;99.90
2327;DHT22;1174;51.588;7.328;2024-02-04T06:57:37;11.00;99.90
2327;DHT22;1174;51.588;7.328;2024-02-04T07:00:07;11.00;99.90
2327;DHT22;1174;51.588;7.328;2024-02-04T07:02:34;10.90;99.90
2327;DHT22;1174;51.588;7.328;2024-02-04T07:05:01;10.90;99.90
2327;DHT22;1174;51.588;7.328;2024-02-04T07:07:27;10.90;99.90
2327;DHT22;1174;51.588;7.328;2024-02-04T07:09:55;10.80;99.90
2327;DHT22;1174;51.588;7.328;2024-02-04T07:12:22;10.80;99.90
2327;DHT22;1174;51.588;7.328;2024-02-04T07:14:49;10.80;99.90
2327;DHT22;1174;51.588;7.328;2024-02-04T07:17:17;10.80;99.90
2327;DHT22;1174;51.588;7.328;2024-02-04T07:19:44;10.80;99.90
2327;DHT22;1174;51.588;7.328;2024-02-04T07:22:10;10.80;99.90
2327;DHT22;1174;51.588;7.328;2024-02-04T07:24:37;10.90;99.90
2327;DHT22;1174;51.588;7.328;2024-02-04T07:27:04;10.90;99.90
2327;DHT22;1174;51.588;7.328;2024-02-04T07:29:30;10.90;99.90
2327;DHT22;1174;51.588;7.328;2024-02-04T07:31:57;11.00;99.90
2327;DHT22;1174;51.588;7.328;2024-02-04T07:34:25;11.00;99.90
2327;DHT22;1174;51.588;7.328;2024-02-04T07:36:52;11.00;99.90
2327;DHT22;1174;51.588;7.328;2024-02-04T07:39:19;11.00;99.90
2327;DHT22;1174;51.588;7.328;2024-02-04T07:41:46;11.00;99.90
2327;DHT22;1174;51.588;7.328;2024-02-04T07:44:13;11.00;99.90
2327;DHT22;1174;51.588;7.328;2024-02-04T07:46:39;11.00;99.90
2327;DHT22;1174;51.588;7.328;2024-02-04T07:49:06;11.00;99.90
2327;DHT22;1174;51.588;7.328;2024-02-04T07:51:33;11.00;99.90
2327;DHT22;1174;51.588;7.328;2024-02-04T07:54:01;11.10;99.90
2327;DHT22;1174;51.588;7.328;2024-02-04T07:56:28;11.00;99.90
2327;DHT22;1174;51.588;7.328;2024-02-04T07:58:55;11.10;99.90
2327;DHT22;1174;51.588;7.328;2024-02-04T08:01:22;11.10;99.90
2327;DHT22;1174;51.588;7.328;2024-02-04T08:03:49;11.10;99.90
2327;DHT22;1174;51.588;7.328;2024-02-04T08:06:16;11.10;99.90
2327;DHT22;1174;51.588;7.328;2024-02-04T08:08:44;11.10;99.90
2327;DHT22;1174;51.588;7.328;2024-02-04T08:11:16;11.10;99.90
2327;DHT22;1174;51.588;7.328;2024-02-04T08:13:43;11.10;99.90
2327;DHT22;1174;51.588;7.328;2024-02-04T08:16:10;11.10;99.90
2327;DHT22;1174;51.588;7.328;2024-02-04T08:18:37;11.00;99.90
2327;DHT22;1174;51.588;7.328;2024-02-04T08:21:04;11.00;99.90
2327;DHT22;1174;51.588;7.328;2024-02-04T08:23:31;11.00;99.90
2327;DHT22;1174;51.588;7.328;2024-02-04T08:25:59;10.90;99.90
2327;DHT22;1174;51.588;7.328;2024-02-04T08:28:26;10.90;99.90
2327;DHT22;1174;51.588;7.328;2024-02-04T08:30:53;10.90;99.90
2327;DHT22;1174;51.588;7.328;2024-02-04T08:33:19;11.00;99.90
2327;DHT22;1174;51.588;7.328;2024-02-04T08:35:45;10.90;99.90
2327;DHT22;1174;51.588;7.328;2024-02-04T08:38:12;10.90;99.90
2327;DHT22;1174;51.588;7.328;2024-02-04T08:40:39;11.00;99.90
2327;DHT22;1174;51.588;7.328;2024-02-04T08:43:07;11.10;99.90
2327;DHT22;1174;51.588;7.328;2024-02-04T08:45:34;11.10;99.90
2327;DHT22;1174;51.588;7.328;2024-02-04T08:48:00;11.20;99.90
2327;DHT22;1174;51.588;7.328;2024-02-04T08:50:28;11.20;99.90
2327;DHT22;1174;51.588;7.328;2024-02-04T08:52:55;11.20;99.90
2327;DHT22;1174;51.588;7.328;2024-02-04T08:55:22;11.20;99.90
2327;DHT22;1174;51.588;7.328;2024-02-04T08:57:49;11.30;99.90
2327;DHT22;1174;51.588;7.328;2024-02-04T09:00:18;11.20;99.90
2327;DHT22;1174;51.588;7.328;2024-02-04T09:02:44;11.20;99.90
2327;DHT22;1174;51.588;7.328;2024-02-04T09:05:12;11.20;99.90
2327;DHT22;1174;51.588;7.328;2024-02-04T09:07:39;11.20;99.90
2327;DHT22;1174;51.588;7.328;2024-02-04T09:10:06;11.20;99.90
2327;DHT22;1174;51.588;7.328;2024-02-04T09:12:33;11.30;99.90
2327;DHT22;1174;51.588;7.328;2024-02-04T09:15:00;11.40;99.90
2327;DHT22;1174;51.588;7.328;2024-02-04T09:17:28;11.30;99.90
2327;DHT22;1174;51.588;7.328;2024-02-04T09:19:55;11.40;99.90
2327;DHT22;1174;51.588;7.328;2024-02-04T09:22:22;11.40;99.90
2327;DHT22;1174;51.588;7.328;2024-02-04T09:24:48;11.40;99.90
2327;DHT22;1174;51.588;7.328;2024-02-04T09:27:15;11.40;99.90
2327;DHT22;1174;51.588;7.328;2024-02-04T09:29:42;11.30;99.90
2327;DHT22;1174;51.588;7.328;2024-02-04T09:32:09;11.10;99.90
2327;DHT22;1174;51.588;7.328;2024-02-04T09:34:37;11.00;99.90
2327;DHT22;1174;51.588;7.328;2024-02-04T09:37:04;11.10;99.90
2327;DHT22;1174;51.588;7.328;2024-02-04T09:39:31;11.10;99.90
2327;DHT22;1174;51.588;7.328;2024-02-04T09:41:57;11.10;99.90
2327;DHT22;1174;51.588;7.328;2024-02-04T09:44:25;11.10;99.90
2327;DHT22;1174;51.588;7.328;2024-02-04T09:46:53;11.10;99.90
2327;DHT22;1174;51.588;7.328;2024-02-04T09:49:24;11.10;99.90
2327;DHT22;1174;51.588;7.328;2024-02-04T09:51:53;10.80;99.90
2327;DHT22;1174;51.588;7.328;2024-02-04T09:54:22;10.70;99.90
2327;DHT22;1174;51.588;7.328;2024-02-04T09:56:49;10.60;99.90
2327;DHT22;1174;51.588;7.328;2024-02-04T09:59:17;10.50;99.90
2327;DHT22;1174;51.588;7.328;2024-02-04T10:01:43;10.50;99.90
2327;DHT22;1174;51.588;7.328;2024-02-04T10:04:10;10.30;99.90
2327;DHT22;1174;51.588;7.328;2024-02-04T10:06:37;10.30;99.90
2327;DHT22;1174;51.588;7.328;2024-02-04T10:09:05;10.20;99.90
2327;DHT22;1174;51.588;7.328;2024-02-04T10:11:32;10.20;99.90
2327;DHT22;1174;51.588;7.328;2024-02-04T10:13:58;10.30;99.90
2327;DHT22;1174;51.588;7.328;2024-02-04T10:16:26;10.20;99.90
2327;DHT22;1174;51.588;7.328;2024-02-04T10:18:52;10.20;99.90
2327;DHT22;1174;51.588;7.328;2024-02-04T10:21:22;10.10;99.90
2327;DHT22;1174;51.588;7.328;2024-02-04T10:23:50;10.20;99.90
2327;DHT22;1174;51.588;7.328;2024-02-04T10:26:19;10.30;99.90
2327;DHT22;1174;51.588;7.328;2024-02-04T10:28:46;10.40;99.90
2327;DHT22;1174;51.588;7.328;2024-02-04T10:31:13;10.40;99.90
2327;DHT22;1174;51.588;7.328;2024-02-04T10:33:40;10.50;99.90
2327;DHT22;1174;51.588;7.328;2024-02-04T10:36:07;10.60;99.90
2327;DHT22;1174;51.588;7.328;2024-02-04T10:38:34;10.60;99.90
2327;DHT22;1174;51.588;7.328;2024-02-04T10:41:01;10.60;99.90
2327;DHT22;1174;51.588;7.328;2024-02-04T10:43:31;10.60;99.90
2327;DHT22;1174;51.588;7.328;2024-02-04T10:46:01;10.70;99.90
2327;DHT22;1174;51.588;7.328;2024-02-04T10:48:34;10.80;99.90
2327;DHT22;1174;51.588;7.328;2024-02-04T10:51:09;10.70;99.90
2327;DHT22;1174;51.588;7.328;2024-02-04T10:53:40;10.80;99.90
2327;DHT22;1174;51.588;7.328;2024-02-04T10:56:09;10.80;99.90
2327;DHT22;1174;51.588;7.328;2024-02-04T10:58:41;10.80;99.90
2327;DHT22;1174;51.588;7.328;2024-02-04T11:01:10;10.90;99.90
2327;DHT22;1174;51.588;7.328;2024-02-04T11:03:38;11.00;99.90
2327;DHT22;1174;51.588;7.328;2024-02-04T11:06:06;11.20;99.90
2327;DHT22;1174;51.588;7.328;2024-02-04T11:08:34;11.20;99.90
2327;DHT22;1174;51.588;7.328;2024-02-04T11:11:01;11.40;99.90
2327;DHT22;1174;51.588;7.328;2024-02-04T11:13:28;11.70;99.90
2327;DHT22;1174;51.588;7.328;2024-02-04T11:15:58;11.80;99.90
2327;DHT22;1174;51.588;7.328;2024-02-04T11:18:58;12.00;99.90
2327;DHT22;1174;51.588;7.328;2024-02-04T11:24:49;12.00;99.90
2327;DHT22;1174;51.588;7.328;2024-02-04T11:30:27;12.10;99.90
2327;DHT22;1174;51.588;7.328;2024-02-04T11:32:55;12.00;99.90
2327;DHT22;1174;51.588;7.328;2024-02-04T11:35:22;11.90;99.90
2327;DHT22;1174;51.588;7.328;2024-02-04T11:37:49;11.90;99.90
2327;DHT22;1174;51.588;7.328;2024-02-04T11:40:15;11.90;99.90
2327;DHT22;1174;51.588;7.328;2024-02-04T11:42:44;11.90;99.90
2327;DHT22;1174;51.588;7.328;2024-02-04T11:45:13;11.90;99.90
2327;DHT22;1174;51.588;7.328;2024-02-04T11:47:40;11.90;99.90
2327;DHT22;1174;51.588;7.328;2024-02-04T11:50:09;12.00;99.90
2327;DHT22;1174;51.588;7.328;2024-02-04T11:52:36;12.10;99.90
2327;DHT22;1174;51.588;7.328;2024-02-04T11:55:03;12.10;99.90
2327;DHT22;1174;51.588;7.328;2024-02-04T11:57:32;12.20;99.90
2327;DHT22;1174;51.588;7.328;2024-02-04T12:00:00;12.30;99.90
2327;DHT22;1174;51.588;7.328;2024-02-04T12:02:27;12.20;99.90
2327;DHT22;1174;51.588;7.328;2024-02-04T12:04:55;12.20;99.90
2327;DHT22;1174;51.588;7.328;2024-02-04T12:07:23;12.20;99.90
2327;DHT22;1174;51.588;7.328;2024-02-04T12:09:50;12.00;99.90
2327;DHT22;1174;51.588;7.328;2024-02-04T12:12:17;12.00;99.90
2327;DHT22;1174;51.588;7.328;2024-02-04T12:14:46;11.90;99.90
2327;DHT22;1174;51.588;7.328;2024-02-04T12:17:13;11.80;99.90
2327;DHT22;1174;51.588;7.328;2024-02-04T12:19:40;11.90;99.90
2327;DHT22;1174;51.588;7.328;2024-02-04T12:22:06;11.90;99.90
2327;DHT22;1174;51.588;7.328;2024-02-04T12:24:36;11.80;99.90
2327;DHT22;1174;51.588;7.328;2024-02-04T12:27:04;11.80;99.90
2327;DHT22;1174;51.588;7.328;2024-02-04T12:29:31;11.70;99.90
2327;DHT22;1174;51.588;7.328;2024-02-04T12:31:58;11.50;99.90
2327;DHT22;1174;51.588;7.328;2024-02-04T12:34:25;11.50;99.90
2327;DHT22;1174;51.588;7.328;2024-02-04T12:36:57;11.50;99.90
2327;DHT22;1174;51.588;7.328;2024-02-04T12:39:25;11.60;99.90
2327;DHT22;1174;51.588;7.328;2024-02-04T12:41:53;11.60;99.90
2327;DHT22;1174;51.588;7.328;2024-02-04T12:44:20;11.60;99.90
2327;DHT22;1174;51.588;7.328;2024-02-04T12:46:50;11.60;99.90
2327;DHT22;1174;51.588;7.328;2024-02-04T12:49:19;11.50;99.90
2327;DHT22;1174;51.588;7.328;2024-02-04T12:51:47;11.60;99.90
2327;DHT22;1174;51.588;7.328;2024-02-04T12:54:14;11.50;99.90
2327;DHT22;1174;51.588;7.328;2024-02-04T12:56:45;11.60;99.90
2327;DHT22;1174;51.588;7.328;2024-02-04T12:59:25;11.60;99.90
2327;DHT22;1174;51.588;7.328;2024-02-04T13:01:53;11.50;99.90
2327;DHT22;1174;51.588;7.328;2024-02-04T13:04:21;11.50;99.90
2327;DHT22;1174;51.588;7.328;2024-02-04T13:06:47;11.40;99.90
2327;DHT22;1174;51.588;7.328;2024-02-04T13:09:15;11.30;99.90
2327;DHT22;1174;51.588;7.328;2024-02-04T13:11:42;11.40;99.90
2327;DHT22;1174;51.588;7.328;2024-02-04T13:14:09;11.50;99.90
2327;DHT22;1174;51.588;7.328;2024-02-04T13:16:37;11.50;99.90
2327;DHT22;1174;51.588;7.328;2024-02-04T13:19:04;11.60;99.90
2327;DHT22;1174;51.588;7.328;2024-02-04T13:21:31;11.60;99.90
2327;DHT22;1174;51.588;7.328;2024-02-04T13:23:57;11.60;99.90
2327;DHT22;1174;51.588;7.328;2024-02-04T13:26:24;11.60;99.90
2327;DHT22;1174;51.588;7.328;2024-02-04T13:28:51;11.60;99.90
2327;DHT22;1174;51.588;7.328;2024-02-04T13:31:18;11.50;99.90
2327;DHT22;1174;51.588;7.328;2024-02-04T13:33:46;11.50;99.90
2327;DHT22;1174;51.588;7.328;2024-02-04T13:36:13;11.50;99.90
2327;DHT22;1174;51.588;7.328;2024-02-04T13:38:40;11.50;99.90
2327;DHT22;1174;51.588;7.328;2024-02-04T13:41:06;11.50;99.90
2327;DHT22;1174;51.588;7.328;2024-02-04T13:43:33;11.40;99.90
2327;DHT22;1174;51.588;7.328;2024-02-04T13:46:00;11.40;99.90
2327;DHT22;1174;51.588;7.328;2024-02-04T13:48:27;11.50;99.90
2327;DHT22;1174;51.588;7.328;2024-02-04T13:50:55;11.50;99.90
2327;DHT22;1174;51.588;7.328;2024-02-04T13:53:22;11.40;99.90
2327;DHT22;1174;51.588;7.328;2024-02-04T13:55:49;11.40;99.90
2327;DHT22;1174;51.588;7.328;2024-02-04T13:58:16;11.50;99.90
2327;DHT22;1174;51.588;7.328;2024-02-04T14:00:43;11.40;99.90
2327;DHT22;1174;51.588;7.328;2024-02-04T14:03:10;11.40;99.90
2327;DHT22;1174;51.588;7.328;2024-02-04T14:05:38;11.40;99.90
2327;DHT22;1174;51.588;7.328;2024-02-04T14:08:07;11.30;99.90
2327;DHT22;1174;51.588;7.328;2024-02-04T14:10:33;11.40;99.90
2327;DHT22;1174;51.588;7.328;2024-02-04T14:13:00;11.40;99.90
2327;DHT22;1174;51.588;7.328;2024-02-04T14:15:27;11.40;99.90
2327;DHT22;1174;51.588;7.328;2024-02-04T14:17:54;11.30;99.90
2327;DHT22;1174;51.588;7.328;2024-02-04T14:20:20;11.30;99.90
2327;DHT22;1174;51.588;7.328;2024-02-04T14:22:47;11.30;99.90
2327;DHT22;1174;51.588;7.328;2024-02-04T14:25:16;11.30;99.90
2327;DHT22;1174;51.588;7.328;2024-02-04T14:27:42;11.30;99.90
2327;DHT22;1174;51.588;7.328;2024-02-04T14:30:10;11.30;99.90
2327;DHT22;1174;51.588;7.328;2024-02-04T14:32:37;11.30;99.90
2327;DHT22;1174;51.588;7.328;2024-02-04T14:35:04;11.40;99.90
2327;DHT22;1174;51.588;7.328;2024-02-04T14:37:34;11.30;99.90
2327;DHT22;1174;51.588;7.328;2024-02-04T14:40:01;11.30;99.90
2327;DHT22;1174;51.588;7.328;2024-02-04T14:42:30;11.20;99.90
2327;DHT22;1174;51.588;7.328;2024-02-04T14:44:57;11.20;99.90
2327;DHT22;1174;51.588;7.328;2024-02-04T14:47:25;11.20;99.90
2327;DHT22;1174;51.588;7.328;2024-02-04T14:49:52;11.20;99.90
2327;DHT22;1174;51.588;7.328;2024-02-04T14:52:19;11.20;99.90
2327;DHT22;1174;51.588;7.328;2024-02-04T14:54:46;11.20;99.90
2327;DHT22;1174;51.588;7.328;2024-02-04T14:57:13;11.20;99.90
2327;DHT22;1174;51.588;7.328;2024-02-04T14:59:41;11.30;99.90
2327;DHT22;1174;51.588;7.328;2024-02-04T15:02:08;11.40;99.90
2327;DHT22;1174;51.588;7.328;2024-02-04T15:04:35;11.30;99.90
2327;DHT22;1174;51.588;7.328;2024-02-04T15:07:02;11.30;99.90
2327;DHT22;1174;51.588;7.328;2024-02-04T15:09:31;11.30;99.90
2327;DHT22;1174;51.588;7.328;2024-02-04T15:11:58;11.20;99.90
2327;DHT22;1174;51.588;7.328;2024-02-04T15:14:26;11.30;99.90
2327;DHT22;1174;51.588;7.328;2024-02-04T15:16:55;11.20;99.90
2327;DHT22;1174;51.588;7.328;2024-02-04T15:19:22;11.20;99.90
2327;DHT22;1174;51.588;7.328;2024-02-04T15:21:51;11.20;99.90
2327;DHT22;1174;51.588;7.328;2024-02-04T15:24:18;11.20;99.90
2327;DHT22;1174;51.588;7.328;2024-02-04T15:26:48;11.20;99.90
2327;DHT22;1174;51.588;7.328;2024-02-04T15:29:15;11.20;99.90
2327;DHT22;1174;51.588;7.328;2024-02-04T15:31:43;11.30;99.90
2327;DHT22;1174;51.588;7.328;2024-02-04T15:34:13;11.40;99.90
2327;DHT22;1174;51.588;7.328;2024-02-04T15:36:40;11.40;99.90
2327;DHT22;1174;51.588;7.328;2024-02-04T15:39:07;11.40;99.90
2327;DHT22;1174;51.588;7.328;2024-02-04T15:41:36;11.30;99.90
2327;DHT22;1174;51.588;7.328;2024-02-04T15:44:04;11.30;99.90
2327;DHT22;1174;51.588;7.328;2024-02-04T15:46:32;11.30;99.90
2327;DHT22;1174;51.588;7.328;2024-02-04T15:48:58;11.30;99.90
2327;DHT22;1174;51.588;7.328;2024-02-04T15:51:32;11.20;99.90
2327;DHT22;1174;51.588;7.328;2024-02-04T15:53:59;11.20;99.90
2327;DHT22;1174;51.588;7.328;2024-02-04T15:56:32;11.20;99.90
2327;DHT22;1174;51.588;7.328;2024-02-04T15:59:07;11.20;99.90
2327;DHT22;1174;51.588;7.328;2024-02-04T16:01:36;11.30;99.90
2327;DHT22;1174;51.588;7.328;2024-02-04T16:04:06;11.40;99.90
2327;DHT22;1174;51.588;7.328;2024-02-04T16:06:35;11.40;99.90
2327;DHT22;1174;51.588;7.328;2024-02-04T16:09:04;11.40;99.90
2327;DHT22;1174;51.588;7.328;2024-02-04T16:11:43;11.40;99.90
2327;DHT22;1174;51.588;7.328;2024-02-04T16:14:13;11.40;99.90
2327;DHT22;1174;51.588;7.328;2024-02-04T16:16:43;11.40;99.90
2327;DHT22;1174;51.588;7.328;2024-02-04T16:19:14;11.50;99.90
2327;DHT22;1174;51.588;7.328;2024-02-04T16:21:43;11.40;99.90
2327;DHT22;1174;51.588;7.328;2024-02-04T16:24:09;11.40;99.90